^^
Station Historical Data
Daily Summary for January 23, 2018 Units:  English    Metric   Both
« Previous Day
Next Day »
Daily Weekly Monthly Yearly Custom
  High: Low: Average:
Temperature: TemperatureF °F 57.2 °F 75 °F
Dew Point: DewpointF °F 19.6 °F 32.3 °F
Humidity: Humidity% 11% 23%
Wind Speed: WindSpeedMPHmph 0.0mph 1.8mph
Wind Gust: WindSpeedGustMPHmph - -
Wind- - SW
Pressure: PressureIn in 29.57 in -
Precipitation: 0.00 in    
Historical Graphs
 
 
Tabular Data for January 23, 2018
Time Temperature Dew Point Pressure Wind Wind Speed Wind Gust Humidity Rainfall Rate (Hourly) solar Conditions
TemperatureF °F DewpointF °F PressureIn in Calm     Humidity% HourlyPrecipIn in SolarRadiationWatts/m^2 W/m2 Conditions
00:03 69.4 °F 34.0 °F 29.72 in NNW 0.9 mph 2.0 mph 27% 0.00 in 0.0 W/m2
00:09 69.3 °F 34.7 °F 29.72 in Calm   3.0 mph 28% 0.00 in 0.0 W/m2
00:14 69.3 °F 34.7 °F 29.72 in Calm   2.0 mph 28% 0.00 in 0.0 W/m2
00:19 69.1 °F 34.5 °F 29.72 in Calm   1.0 mph 28% 0.00 in 0.0 W/m2
00:24 69.1 °F 33.6 °F 29.72 in Calm     27% 0.00 in 0.0 W/m2
00:29 68.9 °F 34.5 °F 29.72 in Calm     28% 0.00 in 0.0 W/m2
00:34 68.7 °F 34.3 °F 29.72 in Calm     28% 0.00 in 0.0 W/m2
00:39 68.5 °F 33.3 °F 29.72 in Calm   1.0 mph 27% 0.00 in 0.0 W/m2
00:44 68.4 °F 34.0 °F 29.72 in Calm   2.0 mph 28% 0.00 in 0.0 W/m2
00:50 68.4 °F 34.0 °F 29.72 in Calm     28% 0.00 in 0.0 W/m2
00:55 68.2 °F 33.8 °F 29.71 in Calm     28% 0.00 in 0.0 W/m2
01:00 68.2 °F 33.8 °F 29.71 in Calm     28% 0.00 in 0.0 W/m2
01:05 68.0 °F 34.5 °F 29.71 in Calm     29% 0.00 in 0.0 W/m2
01:10 67.8 °F 34.3 °F 29.71 in Calm     29% 0.00 in 0.0 W/m2
01:15 67.6 °F 34.2 °F 29.71 in Calm     29% 0.00 in 0.0 W/m2
01:20 67.5 °F 34.9 °F 29.70 in Calm   1.0 mph 30% 0.00 in 0.0 W/m2
01:25 67.3 °F 34.7 °F 29.70 in Calm     30% 0.00 in 0.0 W/m2
01:30 67.1 °F 35.4 °F 29.70 in Calm     31% 0.00 in 0.0 W/m2
01:36 66.9 °F 35.2 °F 29.70 in Calm     31% 0.00 in 0.0 W/m2
01:41 66.6 °F 35.1 °F 29.70 in Calm     31% 0.00 in 0.0 W/m2
01:46 66.4 °F 35.6 °F 29.70 in Calm     32% 0.00 in 0.0 W/m2
01:51 65.8 °F 35.2 °F 29.70 in Calm     32% 0.00 in 0.0 W/m2
01:56 65.7 °F 35.8 °F 29.70 in Calm     33% 0.00 in 0.0 W/m2
02:01 65.1 °F 35.2 °F 29.70 in Calm   1.0 mph 33% 0.00 in 0.0 W/m2
02:06 64.8 °F 35.1 °F 29.70 in Calm   3.0 mph 33% 0.00 in 0.0 W/m2
02:11 64.6 °F 34.9 °F 29.70 in East 2.0 mph 2.0 mph 33% 0.00 in 0.0 W/m2
02:16 64.2 °F 33.8 °F 29.70 in Calm   1.0 mph 32% 0.00 in 0.0 W/m2
02:22 64.0 °F 33.6 °F 29.69 in Calm   1.0 mph 32% 0.00 in 0.0 W/m2
02:27 63.9 °F 33.4 °F 29.70 in Calm   1.0 mph 32% 0.00 in 0.0 W/m2
02:32 63.3 °F 33.8 °F 29.70 in Calm   2.0 mph 33% 0.00 in 0.0 W/m2
02:37 63.1 °F 34.3 °F 29.69 in Calm   1.0 mph 34% 0.00 in 0.0 W/m2
02:42 63.0 °F 34.2 °F 29.69 in Calm     34% 0.00 in 0.0 W/m2
02:47 63.0 °F 34.2 °F 29.69 in Calm     34% 0.00 in 0.0 W/m2
02:52 62.8 °F 34.7 °F 29.69 in ENE 0.9 mph 1.0 mph 35% 0.00 in 0.0 W/m2
02:57 62.4 °F 34.3 °F 29.68 in Calm     35% 0.00 in 0.0 W/m2
03:02 62.2 °F 34.9 °F 29.68 in Calm   1.0 mph 36% 0.00 in 0.0 W/m2
03:08 62.1 °F 34.9 °F 29.68 in ENE 0.9 mph 2.0 mph 36% 0.00 in 0.0 W/m2
03:13 61.9 °F 34.7 °F 29.68 in ENE 0.9 mph 1.0 mph 36% 0.00 in 0.0 W/m2
03:18 61.5 °F 34.3 °F 29.68 in Calm   1.0 mph 36% 0.00 in 0.0 W/m2
03:23 61.2 °F 34.0 °F 29.68 in Calm   1.0 mph 36% 0.00 in 0.0 W/m2
03:38 60.6 °F 34.2 °F 29.67 in Calm   1.0 mph 37% 0.00 in 0.0 W/m2
03:43 60.6 °F 34.2 °F 29.67 in Calm     37% 0.00 in 0.0 W/m2
03:48 60.6 °F 34.2 °F 29.67 in Calm     37% 0.00 in 0.0 W/m2
03:53 60.4 °F 34.7 °F 29.67 in Calm     38% 0.00 in 0.0 W/m2
04:04 60.4 °F 34.7 °F 29.67 in ESE 2.0 mph 2.0 mph 38% 0.00 in 0.0 W/m2
04:09 60.3 °F 34.5 °F 29.67 in Calm   1.0 mph 38% 0.00 in 0.0 W/m2
04:14 60.3 °F 34.5 °F 29.67 in Calm     38% 0.00 in 0.0 W/m2
04:19 60.3 °F 35.2 °F 29.66 in Calm     39% 0.00 in 0.0 W/m2
04:24 60.1 °F 34.3 °F 29.66 in Calm   1.0 mph 38% 0.00 in 0.0 W/m2
04:29 60.1 °F 35.1 °F 29.67 in Calm     39% 0.00 in 0.0 W/m2
04:34 59.9 °F 34.9 °F 29.67 in NE 2.0 mph 4.0 mph 39% 0.00 in 0.0 W/m2
04:45 59.5 °F 33.3 °F 29.67 in East 2.9 mph 3.0 mph 37% 0.00 in 0.0 W/m2
04:50 59.4 °F 33.1 °F 29.67 in ESE 0.9 mph 5.0 mph 37% 0.00 in 0.0 W/m2
05:00 59.4 °F 32.4 °F 29.67 in East 2.0 mph 6.0 mph 36% 0.00 in 0.0 W/m2
05:05 59.4 °F 32.4 °F 29.67 in ENE 0.9 mph 3.0 mph 36% 0.00 in 0.0 W/m2
05:10 59.4 °F 32.4 °F 29.67 in Calm   1.0 mph 36% 0.00 in 0.0 W/m2
05:15 59.4 °F 33.1 °F 29.67 in Calm     37% 0.00 in 0.0 W/m2
05:20 59.2 °F 32.2 °F 29.67 in ESE 2.0 mph 2.0 mph 36% 0.00 in 0.0 W/m2
05:26 59.2 °F 32.2 °F 29.67 in Calm   2.0 mph 36% 0.00 in 0.0 W/m2
05:31 59.2 °F 32.2 °F 29.67 in Calm   1.0 mph 36% 0.00 in 0.0 W/m2
05:36 59.2 °F 32.9 °F 29.68 in Calm   1.0 mph 37% 0.00 in 0.0 W/m2
05:41 59.2 °F 32.9 °F 29.67 in Calm   2.0 mph 37% 0.00 in 0.0 W/m2
05:51 58.8 °F 32.5 °F 29.67 in Calm   3.0 mph 37% 0.00 in 0.0 W/m2
05:56 58.6 °F 32.4 °F 29.67 in Calm     37% 0.00 in 0.0 W/m2
06:06 58.3 °F 32.2 °F 29.68 in Calm   3.0 mph 37% 0.00 in 0.0 W/m2
06:12 58.3 °F 32.7 °F 29.68 in SE 0.9 mph 1.0 mph 38% 0.00 in 0.0 W/m2
06:17 58.1 °F 32.0 °F 29.68 in Calm   1.0 mph 37% 0.00 in 0.0 W/m2
06:22 57.9 °F 31.1 °F 29.68 in Calm   1.0 mph 36% 0.00 in 0.0 W/m2
06:27 57.7 °F 30.9 °F 29.68 in SE 0.9 mph 2.0 mph 36% 0.00 in 0.0 W/m2
06:32 57.7 °F 30.2 °F 29.68 in Calm   2.0 mph 35% 0.00 in 5.0 W/m2
06:37 57.6 °F 30.7 °F 29.69 in Calm   3.0 mph 36% 0.00 in 7.0 W/m2
06:42 57.6 °F 30.7 °F 29.69 in East 2.0 mph 4.0 mph 36% 0.00 in 9.0 W/m2
06:47 57.4 °F 30.6 °F 29.69 in Calm   1.0 mph 36% 0.00 in 11.0 W/m2
06:53 57.2 °F 30.6 °F 29.69 in Calm   3.0 mph 36% 0.00 in 12.0 W/m2
06:58 57.2 °F 30.6 °F 29.69 in Calm   1.0 mph 36% 0.00 in 14.0 W/m2
07:08 57.6 °F 30.0 °F 29.70 in Calm   1.0 mph 35% 0.00 in 18.0 W/m2
07:13 57.7 °F 31.6 °F 29.69 in Calm   2.0 mph 37% 0.00 in 19.0 W/m2
07:18 57.9 °F 31.1 °F 29.69 in Calm   1.0 mph 36% 0.00 in 21.0 W/m2
07:23 58.3 °F 30.0 °F 29.69 in Calm   1.0 mph 34% 0.00 in 21.0 W/m2
07:33 58.8 °F 29.8 °F 29.70 in Calm     33% 0.00 in 23.0 W/m2
07:44 59.4 °F 30.9 °F 29.69 in Calm     34% 0.00 in 56.0 W/m2
07:49 59.7 °F 32.7 °F 29.70 in Calm     36% 0.00 in 142.0 W/m2
07:54 60.1 °F 30.2 °F 29.69 in Calm     32% 0.00 in 236.0 W/m2
07:59 60.8 °F 31.5 °F 29.69 in Calm     33% 0.00 in 334.0 W/m2
08:04 61.5 °F 28.0 °F 29.69 in Calm     28% 0.00 in 352.0 W/m2
08:09 62.6 °F 29.1 °F 29.69 in East 0.9 mph 1.0 mph 28% 0.00 in 373.0 W/m2
08:14 63.9 °F 29.3 °F 29.69 in Calm   1.0 mph 27% 0.00 in 396.0 W/m2
08:20 65.7 °F 28.9 °F 29.69 in Calm   2.0 mph 25% 0.00 in 422.0 W/m2
08:25 67.3 °F 28.2 °F 29.69 in Calm   2.0 mph 23% 0.00 in 441.0 W/m2
08:31 69.4 °F 27.9 °F 29.69 in Calm   2.0 mph 21% 0.00 in 464.0 W/m2
08:36 71.1 °F 25.3 °F 29.69 in Calm   1.0 mph 18% 0.00 in 487.0 W/m2
08:41 72.3 °F 26.4 °F 29.69 in Calm     18% 0.00 in 506.0 W/m2
08:46 73.0 °F 25.7 °F 29.69 in Calm     17% 0.00 in 527.0 W/m2
08:51 73.6 °F 24.6 °F 29.69 in Calm   1.0 mph 16% 0.00 in 548.0 W/m2
08:56 74.7 °F 23.9 °F 29.69 in Calm   1.0 mph 15% 0.00 in 570.0 W/m2
09:01 75.6 °F 23.0 °F 29.69 in Calm   3.0 mph 14% 0.00 in 585.0 W/m2
09:06 76.5 °F 20.1 °F 29.68 in Calm   1.0 mph 12% 0.00 in 605.0 W/m2
09:12 77.4 °F 20.8 °F 29.69 in East 0.9 mph 2.0 mph 12% 0.00 in 622.0 W/m2
09:17 78.1 °F 21.4 °F 29.68 in Calm     12% 0.00 in 642.0 W/m2
09:22 78.6 °F 19.8 °F 29.68 in Calm   1.0 mph 11% 0.00 in 659.0 W/m2
09:27 78.6 °F 21.7 °F 29.68 in Calm   2.0 mph 12% 0.00 in 671.0 W/m2
09:32 78.6 °F 21.7 °F 29.68 in WNW 0.9 mph 2.0 mph 12% 0.00 in 691.0 W/m2
09:37 78.4 °F 19.6 °F 29.68 in Calm     11% 0.00 in 708.0 W/m2
09:42 78.6 °F 23.7 °F 29.68 in Calm   5.0 mph 13% 0.00 in 729.0 W/m2
09:47 79.2 °F 24.1 °F 29.68 in Calm   3.0 mph 13% 0.00 in 745.0 W/m2
09:52 80.1 °F 24.8 °F 29.68 in West 0.9 mph 3.0 mph 13% 0.00 in 765.0 W/m2
10:03 81.3 °F 21.7 °F 29.68 in North 2.0 mph 4.0 mph 11% 0.00 in 791.0 W/m2
10:08 81.9 °F 22.3 °F 29.68 in Calm   4.0 mph 11% 0.00 in 809.0 W/m2
10:13 82.2 °F 24.6 °F 29.68 in WSW 0.9 mph 3.0 mph 12% 0.00 in 824.0 W/m2
10:18 82.4 °F 24.6 °F 29.68 in North 4.0 mph 4.0 mph 12% 0.00 in 840.0 W/m2
10:23 82.9 °F 23.0 °F 29.68 in NE 2.9 mph 7.0 mph 11% 0.00 in 851.0 W/m2
10:28 83.1 °F 25.3 °F 29.68 in Calm   4.0 mph 12% 0.00 in 867.0 W/m2
10:33 83.5 °F 29.3 °F 29.68 in West 0.9 mph 2.0 mph 14% 0.00 in 877.0 W/m2
10:38 83.8 °F 27.7 °F 29.67 in Calm   4.0 mph 13% 0.00 in 889.0 W/m2
10:48 84.4 °F 30.0 °F 29.67 in NNW 0.9 mph 4.0 mph 14% 0.00 in 921.0 W/m2
10:54 84.4 °F 28.2 °F 29.67 in WSW 2.9 mph 7.0 mph 13% 0.00 in 932.0 W/m2
10:59 84.6 °F 28.4 °F 29.67 in WSW 0.9 mph 10.0 mph 13% 0.00 in 944.0 W/m2
11:04 84.7 °F 28.4 °F 29.67 in West 0.9 mph 5.0 mph 13% 0.00 in 956.0 W/m2
11:09 84.7 °F 26.4 °F 29.67 in Calm   3.0 mph 12% 0.00 in 967.0 W/m2
11:14 84.9 °F 28.6 °F 29.67 in NNW 2.0 mph 4.0 mph 13% 0.00 in 970.0 W/m2
11:20 84.9 °F 28.6 °F 29.67 in WNW 0.9 mph 10.0 mph 13% 0.00 in 988.0 W/m2
11:26 85.3 °F 28.9 °F 29.67 in NNE 4.0 mph 4.0 mph 13% 0.00 in 998.0 W/m2
11:31 85.6 °F 29.1 °F 29.67 in West 6.0 mph 7.0 mph 13% 0.00 in 1009.0 W/m2
11:36 85.8 °F 27.3 °F 29.67 in WSW 2.9 mph 5.0 mph 12% 0.00 in 1018.0 W/m2
11:47 85.8 °F 27.3 °F 29.66 in West 0.9 mph 6.0 mph 12% 0.00 in 1051.0 W/m2
11:52 86.0 °F 27.5 °F 29.66 in SW 0.9 mph 7.0 mph 12% 0.00 in 1063.0 W/m2
11:57 86.0 °F 29.5 °F 29.66 in Calm   7.0 mph 13% 0.00 in 1041.0 W/m2
12:02 86.0 °F 29.5 °F 29.66 in Calm   6.0 mph 13% 0.00 in 1044.0 W/m2
12:07 86.7 °F 28.0 °F 29.65 in WSW 0.9 mph 6.0 mph 12% 0.00 in 1042.0 W/m2
12:12 86.5 °F 29.8 °F 29.65 in West 4.9 mph 9.0 mph 13% 0.00 in 1062.0 W/m2
12:17 86.4 °F 31.5 °F 29.65 in SSW 4.0 mph 10.0 mph 14% 0.00 in 1065.0 W/m2
12:22 86.4 °F 29.7 °F 29.65 in West 8.9 mph 9.0 mph 13% 0.00 in 1074.0 W/m2
12:27 86.4 °F 29.7 °F 29.65 in WNW 4.9 mph 9.0 mph 13% 0.00 in 1074.0 W/m2
12:32 86.4 °F 27.7 °F 29.65 in Calm   6.0 mph 12% 0.00 in 1071.0 W/m2
12:38 86.9 °F 28.2 °F 29.65 in WSW 2.0 mph 8.0 mph 12% 0.00 in 1065.0 W/m2
12:43 87.3 °F 28.4 °F 29.65 in SW 4.0 mph 6.0 mph 12% 0.00 in 1081.0 W/m2
12:53 87.8 °F 30.9 °F 29.64 in SW 4.0 mph 8.0 mph 13% 0.00 in 1123.0 W/m2
12:58 88.2 °F 31.1 °F 29.63 in West 4.9 mph 7.0 mph 13% 0.00 in 1099.0 W/m2
13:03 88.3 °F 29.3 °F 29.63 in North 2.0 mph 7.0 mph 12% 0.00 in 1137.0 W/m2
13:14 88.5 °F 31.5 °F 29.63 in North 2.0 mph 11.0 mph 13% 0.00 in 1158.0 W/m2
13:19 88.9 °F 29.7 °F 29.63 in WSW 2.0 mph 9.0 mph 12% 0.00 in 735.0 W/m2
13:34 88.9 °F 31.6 °F 29.62 in WSW 8.1 mph 9.0 mph 13% 0.00 in 1153.0 W/m2
13:39 88.5 °F 31.5 °F 29.62 in WSW 4.0 mph 5.0 mph 13% 0.00 in 1230.0 W/m2
13:44 88.3 °F 31.3 °F 29.62 in Calm   5.0 mph 13% 0.00 in 1229.0 W/m2
13:49 88.9 °F 33.6 °F 29.62 in NW 2.9 mph 7.0 mph 14% 0.00 in 1095.0 W/m2
13:54 89.6 °F 32.2 °F 29.62 in West 0.9 mph 13.0 mph 13% 0.00 in 1102.0 W/m2
13:59 89.4 °F 32.2 °F 29.62 in WSW 10.1 mph 15.0 mph 13% 0.00 in 1197.0 W/m2
14:05 88.9 °F 33.6 °F 29.61 in South 6.0 mph 6.0 mph 14% 0.00 in 1245.0 W/m2
14:10 89.1 °F 33.6 °F 29.61 in West 4.9 mph 6.0 mph 14% 0.00 in 424.0 W/m2
14:15 89.4 °F 34.0 °F 29.61 in WNW 4.0 mph 9.0 mph 14% 0.00 in 1290.0 W/m2
14:25 90.3 °F 34.7 °F 29.60 in Calm   5.0 mph 14% 0.00 in 1111.0 W/m2
14:30 90.9 °F 35.1 °F 29.60 in North 4.0 mph 9.0 mph 14% 0.00 in 1076.0 W/m2
14:35 91.2 °F 35.4 °F 29.60 in North 2.0 mph 11.0 mph 14% 0.00 in 988.0 W/m2
14:40 91.6 °F 35.6 °F 29.60 in Calm   4.0 mph 14% 0.00 in 1062.0 W/m2
14:50 91.6 °F 35.6 °F 29.59 in West 2.0 mph 8.0 mph 14% 0.00 in 981.0 W/m2
14:56 91.6 °F 35.6 °F 29.59 in NNW 6.9 mph 7.0 mph 14% 0.00 in 1014.0 W/m2
15:06 91.0 °F 37.0 °F 29.59 in West 0.9 mph 9.0 mph 15% 0.00 in 984.0 W/m2
15:11 91.2 °F 35.4 °F 29.59 in WNW 2.0 mph 3.0 mph 14% 0.00 in 930.0 W/m2
15:21 90.3 °F 36.3 °F 29.59 in WSW 6.9 mph 11.0 mph 15% 0.00 in 884.0 W/m2
15:26 89.8 °F 36.0 °F 29.58 in WNW 4.9 mph 7.0 mph 15% 0.00 in 895.0 W/m2
15:31 89.4 °F 37.4 °F 29.58 in WSW 4.0 mph 9.0 mph 16% 0.00 in 875.0 W/m2
15:36 89.2 °F 37.2 °F 29.58 in SW 4.0 mph 10.0 mph 16% 0.00 in 861.0 W/m2
15:42 89.2 °F 37.2 °F 29.57 in West 2.0 mph 3.0 mph 16% 0.00 in 847.0 W/m2
15:47 90.1 °F 37.9 °F 29.57 in North 2.9 mph 4.0 mph 16% 0.00 in 817.0 W/m2
15:52 90.7 °F 36.7 °F 29.57 in West 2.9 mph 8.0 mph 15% 0.00 in 810.0 W/m2
15:57 90.9 °F 38.5 °F 29.57 in NNW 2.9 mph 8.0 mph 16% 0.00 in 796.0 W/m2
16:02 91.0 °F 37.0 °F 29.57 in WSW 8.9 mph 12.0 mph 15% 0.00 in 773.0 W/m2
16:07 90.9 °F 38.5 °F 29.57 in North 2.9 mph 7.0 mph 16% 0.00 in 745.0 W/m2
16:17 91.0 °F 38.7 °F 29.57 in WSW 2.0 mph 5.0 mph 16% 0.00 in 248.0 W/m2
16:22 89.8 °F 39.2 °F 29.57 in WNW 10.1 mph 15.0 mph 17% 0.00 in 763.0 W/m2
16:28 89.1 °F 38.7 °F 29.57 in SSW 4.9 mph 9.0 mph 17% 0.00 in 786.0 W/m2
16:44 89.1 °F 38.7 °F 29.57 in North 6.0 mph 11.0 mph 17% 0.00 in 649.0 W/m2
16:55 89.1 °F 38.7 °F 29.57 in NNW 0.9 mph 14.0 mph 17% 0.00 in 589.0 W/m2
17:00 89.2 °F 38.7 °F 29.57 in West 6.0 mph 13.0 mph 17% 0.00 in 580.0 W/m2
17:06 88.7 °F 38.3 °F 29.57 in WSW 4.0 mph 9.0 mph 17% 0.00 in 573.0 W/m2
17:11 88.5 °F 38.1 °F 29.57 in NNW 2.0 mph 8.0 mph 17% 0.00 in 554.0 W/m2
17:16 88.9 °F 38.5 °F 29.57 in North 2.9 mph 4.0 mph 17% 0.00 in 533.0 W/m2
17:22 89.8 °F 37.6 °F 29.57 in WNW 0.9 mph 7.0 mph 16% 0.00 in 492.0 W/m2
17:27 90.0 °F 37.8 °F 29.57 in SW 2.9 mph 8.0 mph 16% 0.00 in 480.0 W/m2
17:32 90.0 °F 37.8 °F 29.57 in WSW 4.9 mph 6.0 mph 16% 0.00 in 459.0 W/m2
17:38 89.8 °F 39.2 °F 29.57 in NNW 2.0 mph 8.0 mph 17% 0.00 in 436.0 W/m2
17:43 90.0 °F 39.4 °F 29.57 in West 2.0 mph 10.0 mph 17% 0.00 in 410.0 W/m2
17:48 90.1 °F 37.9 °F 29.57 in WSW 2.0 mph 4.0 mph 16% 0.00 in 378.0 W/m2
17:54 89.8 °F 39.2 °F 29.57 in WNW 11.0 mph 13.0 mph 17% 0.00 in 378.0 W/m2
17:59 88.7 °F 38.3 °F 29.57 in WNW 2.9 mph 6.0 mph 17% 0.00 in 151.0 W/m2
18:04 87.8 °F 39.0 °F 29.57 in West 0.9 mph 7.0 mph 18% 0.00 in 183.0 W/m2
18:10 87.1 °F 38.5 °F 29.57 in WSW 2.9 mph 7.0 mph 18% 0.00 in 211.0 W/m2
18:15 86.7 °F 39.6 °F 29.57 in South 2.9 mph 5.0 mph 19% 0.00 in 279.0 W/m2
18:20 86.7 °F 39.6 °F 29.57 in SW 4.9 mph 7.0 mph 19% 0.00 in 272.0 W/m2
18:26 86.4 °F 39.2 °F 29.57 in WSW 4.0 mph 11.0 mph 19% 0.00 in 244.0 W/m2
18:36 86.4 °F 36.3 °F 29.58 in WSW 4.0 mph 13.0 mph 17% 0.00 in 202.0 W/m2
18:42 86.5 °F 35.1 °F 29.58 in West 6.0 mph 8.0 mph 16% 0.00 in 176.0 W/m2
18:52 84.6 °F 31.8 °F 29.59 in WNW 4.9 mph 8.0 mph 15% 0.00 in 113.0 W/m2
19:03 83.1 °F 32.4 °F 29.59 in NNW 2.0 mph 9.0 mph 16% 0.00 in 26.0 W/m2
19:08 82.6 °F 31.8 °F 29.59 in SW 2.9 mph 10.0 mph 16% 0.00 in 23.0 W/m2
19:14 82.0 °F 32.9 °F 29.59 in West 2.9 mph 6.0 mph 17% 0.00 in 19.0 W/m2
19:19 81.7 °F 32.5 °F 29.59 in WNW 4.9 mph 9.0 mph 17% 0.00 in 16.0 W/m2
19:24 81.1 °F 32.2 °F 29.60 in WSW 4.0 mph 9.0 mph 17% 0.00 in 12.0 W/m2
19:30 80.8 °F 33.3 °F 29.60 in WSW 8.9 mph 9.0 mph 18% 0.00 in 9.0 W/m2
19:40 80.1 °F 34.2 °F 29.60 in SSW 2.0 mph 10.0 mph 19% 0.00 in 0.0 W/m2
19:46 79.7 °F 33.8 °F 29.61 in SW 4.9 mph 10.0 mph 19% 0.00 in 0.0 W/m2
19:51 79.3 °F 34.7 °F 29.61 in SW 2.0 mph 5.0 mph 20% 0.00 in 0.0 W/m2
19:56 79.2 °F 34.7 °F 29.61 in West 2.9 mph 8.0 mph 20% 0.00 in 0.0 W/m2
20:02 79.0 °F 34.5 °F 29.61 in WNW 4.9 mph 9.0 mph 20% 0.00 in 0.0 W/m2
20:07 78.6 °F 35.4 °F 29.61 in SW 0.9 mph 9.0 mph 21% 0.00 in 0.0 W/m2
20:12 78.3 °F 35.1 °F 29.62 in WSW 4.9 mph 12.0 mph 21% 0.00 in 0.0 W/m2
20:18 78.1 °F 34.9 °F 29.62 in WSW 2.9 mph 7.0 mph 21% 0.00 in 0.0 W/m2
20:23 77.7 °F 34.7 °F 29.62 in WSW 4.9 mph 10.0 mph 21% 0.00 in 0.0 W/m2
20:28 77.5 °F 35.8 °F 29.62 in WSW 2.9 mph 5.0 mph 22% 0.00 in 0.0 W/m2
20:34 77.4 °F 35.6 °F 29.63 in WSW 4.0 mph 8.0 mph 22% 0.00 in 0.0 W/m2
20:39 77.2 °F 35.4 °F 29.63 in SW 0.9 mph 5.0 mph 22% 0.00 in 0.0 W/m2
20:44 76.8 °F 36.1 °F 29.63 in WSW 2.0 mph 8.0 mph 23% 0.00 in 0.0 W/m2
21:00 76.3 °F 35.8 °F 29.64 in West 6.9 mph 12.0 mph 23% 0.00 in 0.0 W/m2
21:06 75.9 °F 35.4 °F 29.64 in SW 8.1 mph 8.1 mph 23% 0.00 in 0.0 W/m2
21:11 75.7 °F 35.2 °F 29.64 in West 2.9 mph 5.0 mph 23% 0.00 in 0.0 W/m2
21:16 75.6 °F 35.2 °F 29.64 in West 0.9 mph 8.0 mph 23% 0.00 in 0.0 W/m2
21:22 75.4 °F 35.1 °F 29.65 in West 4.9 mph 9.0 mph 23% 0.00 in 0.0 W/m2
21:32 75.4 °F 34.0 °F 29.65 in WSW 0.9 mph 5.0 mph 22% 0.00 in 0.0 W/m2
21:48 75.0 °F 33.6 °F 29.65 in SSW 0.9 mph 3.0 mph 22% 0.00 in 0.0 W/m2
21:54 75.0 °F 32.4 °F 29.65 in SSW 2.9 mph 5.0 mph 21% 0.00 in 0.0 W/m2
21:59 75.0 °F 32.4 °F 29.65 in Calm   7.0 mph 21% 0.00 in 0.0 W/m2
22:04 74.8 °F 32.4 °F 29.65 in South 4.9 mph 5.0 mph 21% 0.00 in 0.0 W/m2
22:10 74.7 °F 32.2 °F 29.65 in SSE 2.0 mph 7.0 mph 21% 0.00 in 0.0 W/m2
22:15 74.7 °F 32.2 °F 29.65 in SW 2.9 mph 4.0 mph 21% 0.00 in 0.0 W/m2
22:20 74.5 °F 30.7 °F 29.66 in WSW 6.9 mph 8.0 mph 20% 0.00 in 0.0 W/m2
22:26 74.1 °F 30.6 °F 29.66 in West 4.9 mph 5.0 mph 20% 0.00 in 0.0 W/m2
22:31 74.1 °F 31.6 °F 29.66 in West 4.9 mph 8.0 mph 21% 0.00 in 0.0 W/m2
22:42 73.9 °F 31.5 °F 29.66 in Calm   3.0 mph 21% 0.00 in 0.0 W/m2
22:47 73.8 °F 32.5 °F 29.66 in Calm   1.0 mph 22% 0.00 in 0.0 W/m2
22:52 73.8 °F 32.5 °F 29.66 in Calm   1.0 mph 22% 0.00 in 0.0 W/m2
23:03 73.4 °F 32.2 °F 29.67 in SE 2.0 mph 3.0 mph 22% 0.00 in 0.0 W/m2
23:08 73.2 °F 32.2 °F 29.67 in South 0.9 mph 4.0 mph 22% 0.00 in 0.0 W/m2
23:18 73.0 °F 32.0 °F 29.67 in SE 2.0 mph 3.0 mph 22% 0.00 in 0.0 W/m2
23:23 72.9 °F 31.8 °F 29.67 in Calm   6.0 mph 22% 0.00 in 0.0 W/m2
23:28 72.9 °F 31.8 °F 29.67 in WSW 2.0 mph 3.0 mph 22% 0.00 in 0.0 W/m2
23:33 72.5 °F 31.5 °F 29.67 in Calm   5.0 mph 22% 0.00 in 0.0 W/m2
23:44 72.3 °F 32.4 °F 29.67 in SSW 2.0 mph 5.0 mph 23% 0.00 in 0.0 W/m2
23:55 72.1 °F 32.4 °F 29.67 in SW 2.0 mph 4.0 mph 23% 0.00 in 0.0 W/m2
Olympia, Windhoek, Namibia
Compliments of Weather Underground - 3 mb